createdAt,value
2023-01-19T00:00:31.686Z,218.17
2023-01-19T00:02:31.662Z,218.29
2023-01-19T00:03:31.576Z,216.63
2023-01-19T00:04:31.549Z,218.03
2023-01-19T00:05:31.532Z,217.41
2023-01-19T00:06:31.623Z,214.68
2023-01-19T00:07:31.524Z,214.81
2023-01-19T00:08:31.466Z,216.37
2023-01-19T00:09:31.448Z,221.19
2023-01-19T00:10:31.421Z,220.39
2023-01-19T00:11:31.399Z,219.58
2023-01-19T00:12:31.364Z,220.40
2023-01-19T00:13:31.343Z,220.88
2023-01-19T00:14:31.316Z,218.81
2023-01-19T00:15:31.287Z,219.78
2023-01-19T00:16:31.317Z,218.02
2023-01-19T00:17:31.251Z,218.04
2023-01-19T00:18:31.215Z,220.15
2023-01-19T00:19:31.204Z,217.31
2023-01-19T00:20:31.179Z,218.00
2023-01-19T00:21:31.155Z,220.21
2023-01-19T00:22:31.131Z,219.54
2023-01-19T00:23:31.093Z,218.54
2023-01-19T00:24:31.068Z,217.74
2023-01-19T00:25:31.036Z,221.02
2023-01-19T00:26:31.025Z,219.12
2023-01-19T00:27:30.996Z,219.97
2023-01-19T00:28:30.976Z,218.54
2023-01-19T00:29:30.967Z,219.53
2023-01-19T00:30:30.919Z,216.82
2023-01-19T00:31:30.925Z,220.84
2023-01-19T00:32:30.884Z,218.93
2023-01-19T00:33:30.854Z,217.39
2023-01-19T00:34:30.842Z,218.97
2023-01-19T00:35:30.822Z,218.93
2023-01-19T00:36:30.806Z,220.18
2023-01-19T00:37:30.783Z,219.70
2023-01-19T00:38:30.763Z,216.91
2023-01-19T00:39:30.751Z,219.96
2023-01-19T00:40:30.720Z,217.47
2023-01-19T00:41:30.719Z,218.89
2023-01-19T00:42:30.682Z,220.31
2023-01-19T00:43:30.674Z,220.80
2023-01-19T00:44:30.644Z,221.95
2023-01-19T00:45:30.715Z,218.02
2023-01-19T00:46:30.593Z,218.17
2023-01-19T00:47:30.568Z,219.53
2023-01-19T00:48:30.550Z,219.45
2023-01-19T00:49:30.519Z,218.44
2023-01-19T00:50:30.513Z,218.34
2023-01-19T00:51:30.469Z,217.90
2023-01-19T00:52:30.446Z,217.78
2023-01-19T00:53:30.395Z,219.20
2023-01-19T00:54:30.367Z,221.36
2023-01-19T00:55:30.342Z,221.44
2023-01-19T00:56:30.296Z,218.24
2023-01-19T00:57:30.278Z,218.92
2023-01-19T00:58:30.277Z,223.44
2023-01-19T00:59:30.238Z,219.44
2023-01-19T01:00:30.225Z,219.42
2023-01-19T01:01:45.071Z,220.36
2023-01-19T01:02:31.281Z,220.41
2023-01-19T01:03:30.044Z,221.13
2023-01-19T01:04:29.953Z,220.49
2023-01-19T01:05:29.863Z,218.12
2023-01-19T01:06:29.782Z,220.67
2023-01-19T01:07:29.692Z,221.37
2023-01-19T01:08:29.606Z,221.37
2023-01-19T01:09:29.512Z,222.61
2023-01-19T01:10:29.432Z,221.61
2023-01-19T01:11:29.365Z,221.95
2023-01-19T01:12:29.341Z,222.92
2023-01-19T01:13:29.727Z,220.37
2023-01-19T01:14:29.300Z,221.80
2023-01-19T01:15:29.283Z,222.30
2023-01-19T01:16:29.326Z,219.57
2023-01-19T01:17:29.242Z,223.61
2023-01-19T01:18:29.229Z,222.64
2023-01-19T01:19:29.180Z,220.80
2023-01-19T01:20:29.171Z,223.14
2023-01-19T01:21:29.142Z,228.44
2023-01-19T01:22:29.108Z,222.93
2023-01-19T01:23:29.081Z,220.85
2023-01-19T01:24:29.060Z,223.45
2023-01-19T01:25:29.030Z,219.78
2023-01-19T01:26:29.017Z,219.59
2023-01-19T01:27:28.977Z,220.62
2023-01-19T01:28:28.921Z,221.68
2023-01-19T01:29:28.884Z,223.25
2023-01-19T01:30:28.853Z,222.75
2023-01-19T01:31:28.847Z,223.99
2023-01-19T01:32:28.792Z,222.50
2023-01-19T01:33:39.863Z,222.07
2023-01-19T01:34:29.644Z,222.16
2023-01-19T01:35:28.550Z,222.42
2023-01-19T01:36:28.457Z,222.50
2023-01-19T01:37:28.366Z,223.44
2023-01-19T01:38:28.267Z,225.11
2023-01-19T01:39:28.169Z,226.79
2023-01-19T01:40:28.078Z,223.94
2023-01-19T01:41:27.998Z,223.51
2023-01-19T01:42:27.914Z,225.25
2023-01-19T01:43:27.869Z,224.90
2023-01-19T01:44:27.854Z,223.75
2023-01-19T01:45:27.829Z,224.99
2023-01-19T01:46:27.800Z,224.24
2023-01-19T01:47:27.748Z,223.28
2023-01-19T01:48:27.729Z,221.84
2023-01-19T01:49:27.712Z,223.25
2023-01-19T01:50:27.685Z,225.25
2023-01-19T01:51:27.677Z,224.68
2023-01-19T01:52:27.632Z,223.88
2023-01-19T01:53:27.613Z,222.13
2023-01-19T01:54:27.595Z,223.79
2023-01-19T01:55:27.549Z,223.65
2023-01-19T01:56:27.531Z,223.00
2023-01-19T01:57:27.494Z,224.23
2023-01-19T01:58:27.463Z,224.42
2023-01-19T01:59:27.432Z,224.67
2023-01-19T02:00:27.377Z,222.83
2023-01-19T02:01:29.234Z,226.69
2023-01-19T02:02:27.291Z,222.02
2023-01-19T02:03:27.276Z,224.54
2023-01-19T02:19:26.745Z,227.46
2023-01-19T02:20:26.700Z,224.41
2023-01-19T02:21:26.680Z,225.42
2023-01-19T02:22:26.647Z,226.50
2023-01-19T02:23:26.616Z,224.47
2023-01-19T02:24:26.576Z,228.30
2023-01-19T02:25:26.532Z,223.59
2023-01-19T02:26:26.526Z,226.84
2023-01-19T02:27:26.483Z,226.38
2023-01-19T02:28:26.431Z,225.52
2023-01-19T02:29:26.416Z,226.45
2023-01-19T02:30:26.421Z,226.14
2023-01-19T02:31:26.388Z,227.47
2023-01-19T02:32:26.351Z,224.09
2023-01-19T02:33:26.325Z,227.25
2023-01-19T02:34:26.259Z,226.18
2023-01-19T02:35:26.232Z,227.45
2023-01-19T02:36:26.201Z,227.06
2023-01-19T02:37:26.167Z,225.28
2023-01-19T02:38:26.152Z,228.20
2023-01-19T02:39:26.135Z,223.89
2023-01-19T02:40:26.093Z,224.87
2023-01-19T02:41:26.084Z,225.21
2023-01-19T02:42:26.045Z,227.83
2023-01-19T02:43:26.024Z,225.71
2023-01-19T02:44:26.001Z,224.39
2023-01-19T02:45:25.982Z,226.12
2023-01-19T02:46:25.982Z,226.09
2023-01-19T02:47:25.934Z,227.57
2023-01-19T02:48:25.926Z,224.27
2023-01-19T02:49:25.892Z,225.99
2023-01-19T02:50:25.875Z,225.29
2023-01-19T02:51:25.872Z,228.97
2023-01-19T02:52:25.840Z,224.89
2023-01-19T02:53:25.818Z,225.46
2023-01-19T02:54:25.789Z,226.39
2023-01-19T02:55:25.759Z,222.13
2023-01-19T02:56:25.732Z,223.66
2023-01-19T02:57:25.693Z,226.34
2023-01-19T02:58:25.685Z,228.26
2023-01-19T02:59:25.717Z,227.92
2023-01-19T03:00:25.633Z,228.21
2023-01-19T03:01:25.697Z,223.80
2023-01-19T03:02:25.680Z,225.10
2023-01-19T03:03:25.563Z,224.00
2023-01-19T03:04:25.538Z,228.25
2023-01-19T03:05:25.524Z,226.29
2023-01-19T03:06:25.522Z,225.66
2023-01-19T03:08:25.599Z,225.28
2023-01-19T05:00:21.818Z,233.70
2023-01-19T05:01:22.016Z,233.67
2023-01-19T05:02:21.741Z,232.58
2023-01-19T05:03:21.808Z,232.30
2023-01-19T05:04:21.663Z,229.30
2023-01-19T05:05:21.635Z,229.10
2023-01-19T05:06:21.588Z,230.77
2023-01-19T05:07:21.546Z,231.17
2023-01-19T05:08:21.502Z,231.84
2023-01-19T05:09:21.470Z,232.08
2023-01-19T05:10:21.437Z,230.25
2023-01-19T05:11:21.384Z,228.06
2023-01-19T05:12:21.353Z,226.06
2023-01-19T05:13:21.316Z,230.29
2023-01-19T05:14:21.269Z,228.68
2023-01-19T05:15:21.238Z,226.63
2023-01-19T05:16:21.249Z,228.76
2023-01-19T05:17:21.168Z,229.90
2023-01-19T05:18:21.119Z,227.91
2023-01-19T05:19:21.080Z,228.46
2023-01-19T05:20:21.035Z,228.12
2023-01-19T05:21:21.001Z,231.59
2023-01-19T05:22:20.947Z,226.73
2023-01-19T05:23:20.897Z,228.56
2023-01-19T05:24:20.860Z,229.09
2023-01-19T05:25:20.813Z,226.46
2023-01-19T05:26:20.772Z,227.03
2023-01-19T05:27:20.715Z,224.87
2023-01-19T05:28:20.659Z,226.92
2023-01-19T05:29:20.637Z,229.09
2023-01-19T05:30:20.584Z,228.30
2023-01-19T05:31:20.599Z,225.50
2023-01-19T05:32:20.477Z,229.46
2023-01-19T05:33:20.429Z,227.44
2023-01-19T05:34:20.392Z,228.01
2023-01-19T05:35:31.261Z,227.04
2023-01-19T05:36:21.238Z,227.12
2023-01-19T05:37:20.143Z,227.24
2023-01-19T05:38:29.318Z,227.50
2023-01-19T05:39:20.962Z,227.29
2023-01-19T05:40:19.869Z,225.41
2023-01-19T05:41:19.766Z,227.07
2023-01-19T05:42:19.675Z,226.20
2023-01-19T05:43:19.584Z,227.94
2023-01-19T05:44:19.495Z,227.38
2023-01-19T05:45:19.408Z,225.84
2023-01-19T05:46:19.344Z,226.71
2023-01-19T05:47:19.224Z,227.96
2023-01-19T05:48:19.126Z,228.16
2023-01-19T05:49:19.036Z,227.50
2023-01-19T05:50:18.931Z,223.36
2023-01-19T05:51:18.897Z,229.48
2023-01-19T05:52:18.892Z,228.72
2023-01-19T05:53:18.818Z,229.48
2023-01-19T05:54:18.788Z,226.22
2023-01-19T05:55:18.750Z,227.34
2023-01-19T05:56:18.714Z,228.23
2023-01-19T05:57:18.670Z,226.47
2023-01-19T05:58:18.631Z,225.84
2023-01-19T05:59:18.593Z,224.41
2023-01-19T06:00:18.549Z,228.29
2023-01-19T06:01:18.583Z,227.73
2023-01-19T06:02:18.511Z,227.84
2023-01-19T06:03:18.462Z,222.21
2023-01-19T06:04:18.416Z,226.93
2023-01-19T06:05:18.375Z,226.25
2023-01-19T06:06:18.353Z,226.12
2023-01-19T06:07:18.315Z,225.21
2023-01-19T06:08:18.270Z,225.00
2023-01-19T06:09:18.234Z,225.14
2023-01-19T06:10:18.201Z,226.49
2023-01-19T06:11:18.180Z,226.97
2023-01-19T06:12:18.121Z,224.69
2023-01-19T06:13:18.093Z,223.76
2023-01-19T06:14:18.025Z,224.37
2023-01-19T06:15:17.993Z,221.97
2023-01-19T06:16:18.008Z,226.05
2023-01-19T06:17:17.923Z,225.56
2023-01-19T06:18:17.881Z,223.07
2023-01-19T06:19:17.838Z,225.34
2023-01-19T06:20:17.794Z,225.59
2023-01-19T06:21:17.757Z,222.99
2023-01-19T06:22:17.731Z,225.15
2023-01-19T06:23:17.702Z,226.53
2023-01-19T06:24:17.659Z,219.37
2023-01-19T06:25:17.621Z,222.61
2023-01-19T06:26:17.587Z,221.64
2023-01-19T06:27:17.539Z,224.35
2023-01-19T06:28:17.495Z,226.83
2023-01-19T06:29:17.457Z,225.09
2023-01-19T06:30:17.405Z,213.78
2023-01-19T06:31:17.379Z,220.33
2023-01-19T06:32:17.314Z,220.63
2023-01-19T06:33:17.262Z,224.58
2023-01-19T06:34:17.196Z,223.00
2023-01-19T06:35:17.142Z,218.78
2023-01-19T06:36:17.085Z,222.70
2023-01-19T06:37:17.010Z,220.47
2023-01-19T06:38:16.953Z,218.50
2023-01-19T06:39:16.904Z,220.99
2023-01-19T06:40:16.830Z,218.93
2023-01-19T06:41:16.780Z,217.42
2023-01-19T06:51:16.210Z,212.70
2023-01-19T06:54:16.027Z,212.38
2023-01-19T06:55:16.005Z,212.06
2023-01-19T06:56:15.961Z,210.60
2023-01-19T06:57:15.879Z,212.34
2023-01-19T06:58:15.809Z,211.31
2023-01-19T06:59:15.770Z,211.79
2023-01-19T07:00:15.712Z,208.23
2023-01-19T07:01:15.850Z,211.82
2023-01-19T07:02:27.518Z,210.76
2023-01-19T09:11:09.237Z,246.93
2023-01-19T09:13:09.043Z,247.63
2023-01-19T09:14:08.952Z,243.20
2023-01-19T09:15:08.862Z,257.03
2023-01-19T09:16:08.835Z,282.76
2023-01-19T09:17:08.645Z,252.35
2023-01-19T09:18:08.551Z,265.16
2023-01-19T09:24:08.608Z,220.78
2023-01-19T09:38:07.568Z,197.40
2023-01-19T09:43:06.464Z,196.00
2023-01-19T09:44:06.359Z,192.93
2023-01-19T09:48:06.073Z,191.27
2023-01-19T09:49:06.007Z,189.71
2023-01-19T09:50:05.960Z,189.60
2023-01-19T09:51:05.860Z,189.82
2023-01-19T09:52:05.796Z,190.52
2023-01-19T09:53:05.711Z,189.44
2023-01-19T09:54:05.704Z,189.42
2023-01-19T09:55:05.586Z,188.78
2023-01-19T09:56:05.522Z,188.27
2023-01-19T12:00:57.872Z,166.88
2023-01-19T12:01:57.770Z,167.10
2023-01-19T12:02:57.669Z,166.53
2023-01-19T12:03:57.647Z,167.41
2023-01-19T12:04:57.531Z,168.24
2023-01-19T12:05:57.473Z,166.19
2023-01-19T12:06:57.426Z,166.37
2023-01-19T12:07:57.329Z,164.92
2023-01-19T12:08:57.293Z,166.37
2023-01-19T12:09:57.221Z,163.94
2023-01-19T12:10:57.156Z,162.10
2023-01-19T12:11:57.103Z,161.72
2023-01-19T12:12:57.044Z,160.62
2023-01-19T12:13:57.029Z,158.54
2023-01-19T12:14:56.946Z,160.70
2023-01-19T12:15:57.576Z,157.48
2023-01-19T12:16:56.846Z,157.93
2023-01-19T12:17:56.837Z,156.73
2023-01-19T12:18:56.800Z,157.93
2023-01-19T12:19:56.746Z,156.70
2023-01-19T12:20:56.756Z,154.79
2023-01-19T12:21:56.674Z,154.13
2023-01-19T12:22:58.926Z,152.00
2023-01-19T12:23:56.565Z,152.18
2023-01-19T12:24:56.436Z,150.24
2023-01-19T12:25:56.332Z,150.32
2023-01-19T12:26:56.240Z,150.42
2023-01-19T12:27:56.145Z,149.25
2023-01-19T12:28:56.049Z,147.25
2023-01-19T12:29:55.936Z,147.08
2023-01-19T12:30:55.975Z,145.79
2023-01-19T12:31:55.838Z,145.43
2023-01-19T12:32:55.615Z,144.10
2023-01-19T12:33:55.530Z,143.80
2023-01-19T12:34:55.413Z,142.62
2023-01-19T12:35:55.308Z,143.70
2023-01-19T12:36:55.212Z,142.85
2023-01-19T12:37:55.118Z,142.95
2023-01-19T12:38:55.015Z,142.02
2023-01-19T12:39:54.930Z,140.87
2023-01-19T12:40:54.819Z,140.54
2023-01-19T12:41:54.709Z,140.52
2023-01-19T12:42:54.628Z,141.12
2023-01-19T12:43:54.524Z,140.14
2023-01-19T12:44:54.416Z,137.99
2023-01-19T12:45:54.357Z,139.61
2023-01-19T12:46:54.221Z,139.28
2023-01-19T12:47:54.113Z,137.91
2023-01-19T12:48:54.012Z,136.12
2023-01-19T12:49:53.904Z,133.17
2023-01-19T12:50:53.784Z,127.99
2023-01-19T12:51:53.700Z,128.37
2023-01-19T12:52:53.585Z,126.35
2023-01-19T12:53:53.487Z,125.67
2023-01-19T12:54:53.404Z,123.85
2023-01-19T12:55:53.279Z,124.94
2023-01-19T12:56:53.179Z,126.37
2023-01-19T12:57:53.093Z,124.86
2023-01-19T12:58:52.983Z,124.62
2023-01-19T12:59:52.889Z,123.02
2023-01-19T13:00:52.811Z,122.84
2023-01-19T13:01:52.801Z,121.43
2023-01-19T13:02:52.681Z,121.45
2023-01-19T13:03:52.494Z,122.56
2023-01-19T13:04:52.385Z,122.77
2023-01-19T13:05:52.293Z,121.64
2023-01-19T13:06:52.180Z,120.57
2023-01-19T13:07:52.085Z,121.97
2023-01-19T13:08:52.598Z,121.51
2023-01-19T13:09:51.875Z,120.82
2023-01-19T13:10:51.790Z,120.49
2023-01-19T13:12:00.539Z,121.09
2023-01-19T13:12:52.590Z,121.23
2023-01-19T13:13:51.456Z,121.11
2023-01-19T13:14:51.356Z,121.14
2023-01-19T13:15:51.312Z,119.45
2023-01-19T13:16:51.153Z,120.29
2023-01-19T13:17:51.078Z,117.50
2023-01-19T13:18:50.958Z,120.57
2023-01-19T13:19:50.873Z,120.39
2023-01-19T13:20:50.766Z,120.05
2023-01-19T13:21:50.670Z,118.71
2023-01-19T13:22:50.606Z,118.75
2023-01-19T13:23:50.463Z,119.14
2023-01-19T13:24:50.371Z,117.70
2023-01-19T13:25:51.285Z,117.85
2023-01-19T13:26:50.211Z,117.60
2023-01-19T13:33:49.502Z,117.74
2023-01-19T13:34:49.417Z,117.44
2023-01-19T13:35:49.309Z,118.89
2023-01-19T13:36:49.219Z,117.14
2023-01-19T13:37:49.142Z,117.94
2023-01-19T13:38:49.033Z,118.18
2023-01-19T13:39:48.953Z,119.19
2023-01-19T13:40:48.848Z,118.39
2023-01-19T13:41:48.774Z,116.48
2023-01-19T13:42:48.665Z,117.75
2023-01-19T13:43:48.571Z,118.75
2023-01-19T13:44:48.469Z,116.56
2023-01-19T13:45:50.664Z,116.37
2023-01-19T13:46:48.277Z,116.98
2023-01-19T13:47:48.192Z,117.55
2023-01-19T13:48:48.105Z,116.88
2023-01-19T13:49:47.998Z,117.38
2023-01-19T13:50:47.902Z,116.58
2023-01-19T13:51:49.595Z,117.83
2023-01-19T13:52:47.701Z,118.12
2023-01-19T13:53:47.631Z,116.04
2023-01-19T13:54:47.535Z,116.43
2023-01-19T13:55:47.445Z,115.23
2023-01-19T13:56:47.329Z,117.11
2023-01-19T13:57:47.228Z,115.05
2023-01-19T13:58:47.173Z,115.66
2023-01-19T13:59:47.054Z,117.35
2023-01-19T14:00:46.972Z,116.90
2023-01-19T14:01:47.045Z,115.17
2023-01-19T14:02:46.903Z,115.45
2023-01-19T14:03:46.657Z,116.66
2023-01-19T14:04:46.567Z,114.62
2023-01-19T14:05:46.547Z,115.05
2023-01-19T14:06:47.674Z,113.26
2023-01-19T14:07:46.296Z,116.53
2023-01-19T14:08:46.182Z,115.03
2023-01-19T14:09:46.098Z,115.33
2023-01-19T14:10:46.071Z,114.83
2023-01-19T14:11:45.923Z,114.82
2023-01-19T14:12:58.876Z,114.17
2023-01-19T14:13:46.731Z,114.40
2023-01-19T14:14:45.616Z,114.24
2023-01-19T14:15:45.606Z,114.80
2023-01-19T15:10:41.872Z,113.18
2023-01-19T15:11:41.825Z,111.57
2023-01-19T15:12:41.759Z,111.88
2023-01-19T15:13:41.711Z,110.28
2023-01-19T15:14:41.659Z,112.17
2023-01-19T15:15:41.615Z,110.44
2023-01-19T15:16:41.549Z,112.69
2023-01-19T15:17:41.503Z,112.66
2023-01-19T15:18:41.451Z,112.28
2023-01-19T15:19:41.485Z,111.75
2023-01-19T15:20:41.355Z,112.60
2023-01-19T15:21:41.282Z,111.03
2023-01-19T15:22:41.241Z,111.55
2023-01-19T15:23:41.195Z,111.50
2023-01-19T15:24:41.165Z,110.83
2023-01-19T15:25:41.101Z,113.10
2023-01-19T15:26:41.042Z,113.84
2023-01-19T15:27:40.997Z,112.26
2023-01-19T15:28:40.946Z,111.76
2023-01-19T15:29:40.898Z,111.27
2023-01-19T15:30:40.987Z,111.00
2023-01-19T15:31:40.848Z,113.50
2023-01-19T15:32:40.756Z,112.54
2023-01-19T15:33:40.712Z,112.42
2023-01-19T15:34:40.648Z,113.44
2023-01-19T15:35:40.594Z,112.40
2023-01-19T15:36:40.532Z,111.37
2023-01-19T15:37:40.499Z,114.84
2023-01-19T15:38:40.438Z,111.08
2023-01-19T15:39:40.440Z,112.02
2023-01-19T15:40:40.352Z,111.26
2023-01-19T15:41:40.360Z,112.32
2023-01-19T15:42:40.286Z,112.28
2023-01-19T15:43:40.219Z,112.13
2023-01-19T15:44:40.173Z,113.83
2023-01-19T15:45:40.265Z,111.58
2023-01-19T15:46:40.100Z,110.93
2023-01-19T15:47:40.040Z,111.52
2023-01-19T15:48:39.996Z,111.57
2023-01-19T15:49:39.965Z,112.17
2023-01-19T15:50:39.905Z,113.05
2023-01-19T15:51:39.889Z,112.34
2023-01-19T15:52:39.823Z,112.49
2023-01-19T15:53:39.771Z,111.81
2023-01-19T15:54:39.738Z,111.95
2023-01-19T15:55:39.692Z,112.14
2023-01-19T15:56:39.647Z,111.11
2023-01-19T15:57:39.613Z,111.74
2023-01-19T15:58:39.574Z,110.31
2023-01-19T15:59:39.543Z,111.72
2023-01-19T16:00:39.564Z,110.19
2023-01-19T16:01:39.613Z,111.83
2023-01-19T16:02:39.456Z,109.92
2023-01-19T16:03:39.406Z,110.57
2023-01-19T16:04:39.367Z,110.16
2023-01-19T16:05:43.637Z,111.52
2023-01-19T16:06:39.248Z,111.58
2023-01-19T16:07:39.185Z,111.59
2023-01-19T16:08:39.042Z,110.66
2023-01-19T16:09:38.943Z,109.06
2023-01-19T16:10:38.873Z,110.06
2023-01-19T16:11:38.767Z,112.48
2023-01-19T16:12:38.662Z,111.91
2023-01-19T16:13:38.558Z,110.69
2023-01-19T16:14:38.464Z,111.23
2023-01-19T16:15:38.371Z,110.69
2023-01-19T16:16:38.293Z,110.04
2023-01-19T16:17:38.163Z,109.65
2023-01-19T16:18:38.069Z,110.59
2023-01-19T16:19:37.967Z,111.74
2023-01-19T16:20:37.878Z,112.23
2023-01-19T16:21:37.780Z,110.89
2023-01-19T16:22:37.727Z,109.90
2023-01-19T16:23:37.689Z,112.60
2023-01-19T16:24:37.655Z,112.21
2023-01-19T16:25:37.607Z,109.75
2023-01-19T16:26:37.592Z,113.11
2023-01-19T16:27:37.544Z,111.37
2023-01-19T16:28:37.528Z,111.02
2023-01-19T16:29:37.499Z,112.46
2023-01-19T16:30:37.550Z,113.15
2023-01-19T16:31:37.495Z,112.66
2023-01-19T16:32:37.442Z,111.84
2023-01-19T16:33:37.400Z,111.62
2023-01-19T16:34:37.371Z,110.27
2023-01-19T16:35:37.332Z,110.05
2023-01-19T16:36:37.305Z,112.41
2023-01-19T16:37:37.276Z,111.61
2023-01-19T16:38:37.243Z,111.32
2023-01-19T16:39:37.226Z,112.93
2023-01-19T16:40:37.199Z,112.53
2023-01-19T16:41:37.180Z,110.95
2023-01-19T16:42:37.165Z,112.13
2023-01-19T16:43:37.147Z,111.85
2023-01-19T16:44:37.124Z,112.06
2023-01-19T16:45:37.161Z,110.80
2023-01-19T16:46:37.107Z,111.57
2023-01-19T16:47:37.050Z,110.19
2023-01-19T16:48:37.033Z,110.60
2023-01-19T16:49:37.005Z,111.11
2023-01-19T16:50:36.970Z,111.93
2023-01-19T16:51:36.954Z,112.24
2023-01-19T16:52:36.927Z,113.64
2023-01-19T16:53:36.900Z,110.87
2023-01-19T16:54:39.242Z,110.48
2023-01-19T16:55:36.922Z,112.54
2023-01-19T16:56:36.906Z,112.10
2023-01-19T16:57:36.878Z,112.08
2023-01-19T16:58:36.838Z,112.05
2023-01-19T16:59:36.816Z,112.30
2023-01-19T17:00:36.792Z,112.00
2023-01-19T17:01:36.824Z,112.55
2023-01-19T17:02:36.754Z,111.54
2023-01-19T17:03:36.692Z,113.35
2023-01-19T17:04:36.662Z,113.27
2023-01-19T17:05:36.630Z,112.47
2023-01-19T17:06:36.612Z,112.44
2023-01-19T17:07:36.582Z,111.87
2023-01-19T17:08:36.542Z,113.04
2023-01-19T17:09:36.518Z,113.30
2023-01-19T17:10:36.477Z,112.80
2023-01-19T17:11:36.451Z,112.59
2023-01-19T17:12:36.422Z,113.03
2023-01-19T17:13:36.369Z,111.82
2023-01-19T17:14:36.330Z,111.75
2023-01-19T17:15:36.301Z,112.19
2023-01-19T17:16:36.384Z,111.53
2023-01-19T17:17:36.252Z,113.19
2023-01-19T17:18:36.233Z,112.27
2023-01-19T17:19:36.171Z,114.55
2023-01-19T17:20:36.134Z,110.21
2023-01-19T17:21:36.102Z,113.35
2023-01-19T17:22:36.078Z,111.62
2023-01-19T17:23:36.043Z,112.76
2023-01-19T17:24:36.007Z,111.34
2023-01-19T17:25:35.998Z,113.35
2023-01-19T17:26:35.957Z,110.23
2023-01-19T17:27:35.942Z,111.38
2023-01-19T17:28:35.900Z,112.66
2023-01-19T17:29:35.878Z,113.21
2023-01-19T17:30:35.910Z,110.99
2023-01-19T17:31:35.848Z,113.18
2023-01-19T17:32:35.793Z,113.84
2023-01-19T17:33:35.756Z,113.48
2023-01-19T17:34:35.740Z,113.53
2023-01-19T17:35:35.701Z,112.60
2023-01-19T17:36:35.676Z,114.53
2023-01-19T17:37:35.652Z,113.31
2023-01-19T17:38:35.616Z,113.35
2023-01-19T17:39:35.599Z,114.29
2023-01-19T17:40:35.601Z,114.32
2023-01-19T17:41:35.544Z,112.24
2023-01-19T17:42:35.515Z,114.38
2023-01-19T17:43:35.480Z,113.31
2023-01-19T17:44:35.465Z,112.35
2023-01-19T17:45:35.414Z,114.41
2023-01-19T17:46:35.395Z,113.45
2023-01-19T17:47:35.365Z,115.22
2023-01-19T17:48:35.331Z,115.66
2023-01-19T17:49:35.312Z,113.51
2023-01-19T17:50:35.293Z,115.31
2023-01-19T17:51:35.263Z,112.51
2023-01-19T17:52:35.236Z,111.77
2023-01-19T17:53:35.193Z,113.10
2023-01-19T17:54:35.177Z,115.84
2023-01-19T17:55:35.145Z,113.64
2023-01-19T17:56:35.112Z,114.85
2023-01-19T17:57:35.105Z,111.41
2023-01-19T17:58:35.099Z,113.89
2023-01-19T17:59:35.060Z,113.03
2023-01-19T18:00:35.022Z,114.70
2023-01-19T18:01:35.091Z,111.19
2023-01-19T18:02:35.031Z,114.32
2023-01-19T18:03:34.955Z,113.75
2023-01-19T18:04:34.928Z,113.60
2023-01-19T18:05:34.914Z,112.34
2023-01-19T18:06:34.884Z,114.19
2023-01-19T18:07:34.867Z,113.22
2023-01-19T18:08:34.839Z,112.76
2023-01-19T18:09:34.807Z,112.20
2023-01-19T18:10:34.794Z,113.11
2023-01-19T18:11:34.763Z,112.48
2023-01-19T18:12:34.746Z,114.45
2023-01-19T18:13:34.726Z,113.96
2023-01-19T18:14:34.707Z,114.92
2023-01-19T18:15:34.741Z,115.00
2023-01-19T18:16:34.676Z,113.23
2023-01-19T18:17:35.298Z,113.61
2023-01-19T18:18:34.612Z,113.24
2023-01-19T18:19:34.590Z,114.66
2023-01-19T18:20:34.557Z,112.78
2023-01-19T18:21:34.530Z,113.03
2023-01-19T18:22:34.497Z,114.61
2023-01-19T18:23:34.483Z,114.32
2023-01-19T18:24:34.447Z,112.84
2023-01-19T18:25:34.429Z,113.16
2023-01-19T18:26:34.396Z,114.79
2023-01-19T18:27:34.407Z,113.61
2023-01-19T18:28:34.362Z,112.23
2023-01-19T18:29:34.325Z,117.72
2023-01-19T18:30:34.331Z,114.99
2023-01-19T18:31:34.335Z,115.81
2023-01-19T18:32:34.259Z,115.64
2023-01-19T18:33:34.218Z,115.52
2023-01-19T18:34:34.198Z,115.29
2023-01-19T18:35:34.165Z,116.44
2023-01-19T18:36:34.152Z,114.26
2023-01-19T18:37:34.116Z,113.71
2023-01-19T18:38:34.101Z,113.47
2023-01-19T18:39:34.063Z,114.59
2023-01-19T18:40:34.015Z,112.90
2023-01-19T18:41:33.985Z,113.89
2023-01-19T18:42:33.961Z,114.76
2023-01-19T18:43:33.928Z,111.28
2023-01-19T18:44:33.916Z,114.57
2023-01-19T18:45:33.871Z,114.84
2023-01-19T18:46:33.935Z,114.49
2023-01-19T18:47:33.843Z,114.99
2023-01-19T18:48:33.822Z,112.71
2023-01-19T18:49:33.794Z,113.92
2023-01-19T18:50:33.779Z,113.58
2023-01-19T18:51:33.749Z,111.38
2023-01-19T18:52:33.762Z,115.96
2023-01-19T18:53:33.702Z,113.96
2023-01-19T18:54:34.265Z,113.35
2023-01-19T18:55:33.635Z,114.52
2023-01-19T18:56:33.611Z,116.40
2023-01-19T18:57:33.594Z,114.51
2023-01-19T18:58:33.591Z,113.57
2023-01-19T18:59:33.529Z,112.57
2023-01-19T19:00:33.510Z,111.71
2023-01-19T19:01:33.664Z,113.93
2023-01-19T19:02:33.397Z,115.41
2023-01-19T19:03:33.355Z,112.83
2023-01-19T19:04:33.323Z,113.73
2023-01-19T19:05:33.341Z,114.72
2023-01-19T19:06:33.223Z,112.65
2023-01-19T19:07:33.180Z,114.42
2023-01-19T19:08:33.145Z,113.40
2023-01-19T19:39:32.055Z,109.90
2023-01-19T19:40:32.022Z,113.35
2023-01-19T19:41:32.002Z,115.24
2023-01-19T19:42:31.951Z,113.31
2023-01-19T19:43:31.921Z,111.54
2023-01-19T19:44:31.856Z,115.44
2023-01-19T19:45:31.836Z,111.63
2023-01-19T19:46:31.860Z,112.18
2023-01-19T19:47:31.799Z,112.93
2023-01-19T19:48:31.771Z,112.81
2023-01-19T19:49:31.722Z,110.84
2023-01-19T19:50:31.685Z,111.01
2023-01-19T19:51:31.672Z,111.82
2023-01-19T19:52:31.630Z,113.11
2023-01-19T19:53:31.602Z,111.78
2023-01-19T19:54:31.591Z,114.83
2023-01-19T19:55:31.548Z,114.37
2023-01-19T19:56:31.523Z,115.05
2023-01-19T19:57:31.507Z,115.44
2023-01-19T19:58:31.468Z,114.65
2023-01-19T19:59:31.452Z,115.88
2023-01-19T20:00:31.462Z,114.06
2023-01-19T20:01:32.870Z,118.37
2023-01-19T20:02:31.388Z,117.67
2023-01-19T20:03:31.361Z,114.84
2023-01-19T20:04:31.433Z,113.18
2023-01-19T20:05:31.329Z,112.70
2023-01-19T20:06:31.307Z,117.13
2023-01-19T20:07:31.295Z,116.39
2023-01-19T20:08:31.296Z,115.91
2023-01-19T20:09:31.244Z,116.55
2023-01-19T20:10:31.242Z,115.34
2023-01-19T20:11:31.194Z,114.40
2023-01-19T20:12:31.179Z,114.86
2023-01-19T20:13:31.168Z,113.34
2023-01-19T20:14:31.139Z,114.50
2023-01-19T20:15:31.099Z,116.10
2023-01-19T20:16:31.086Z,114.09
2023-01-19T20:17:31.066Z,114.32
2023-01-19T20:18:31.034Z,112.88
2023-01-19T20:19:32.527Z,113.74
2023-01-19T20:20:30.993Z,112.67
2023-01-19T20:21:30.956Z,109.19
2023-01-19T20:22:30.939Z,113.86
2023-01-19T20:23:30.900Z,113.39
2023-01-19T20:24:30.889Z,113.77
2023-01-19T20:25:30.861Z,115.20
2023-01-19T20:26:30.838Z,110.75
2023-01-19T20:27:30.814Z,112.27
2023-01-19T20:28:30.768Z,112.38
2023-01-19T20:29:30.741Z,111.79
2023-01-19T20:30:30.776Z,113.75
2023-01-19T20:31:30.777Z,113.95
2023-01-19T20:32:30.689Z,112.39
2023-01-19T20:33:30.666Z,113.69
2023-01-19T20:34:33.040Z,112.53
2023-01-19T20:35:30.572Z,112.74
2023-01-19T20:36:30.481Z,115.48
2023-01-19T20:37:30.397Z,113.77
2023-01-19T20:38:30.318Z,113.02
2023-01-19T20:39:30.241Z,113.47
2023-01-19T20:40:30.137Z,113.29
2023-01-19T20:41:30.044Z,113.07
2023-01-19T20:42:30.861Z,114.60
2023-01-19T20:43:29.858Z,114.82
2023-01-19T20:44:29.774Z,114.47
2023-01-19T20:45:29.718Z,111.91
2023-01-19T20:46:29.593Z,115.45
2023-01-19T20:47:29.516Z,114.39
2023-01-19T20:48:29.424Z,114.45
2023-01-19T20:49:29.337Z,115.28
2023-01-19T20:50:29.244Z,114.32
2023-01-19T20:51:29.153Z,116.56
2023-01-19T20:52:29.072Z,115.36
2023-01-19T20:53:28.988Z,115.40
2023-01-19T20:54:28.890Z,118.73